Time;durP1;ratioP1;P1;durP2;ratioP2;P2;SDS_P1;SDS_P2;PMS_P1;PMS_P2;Temp;Humidity;BMP_temperature;BMP_pressure;BME280_temperature;BME280_humidity;BME280_pressure;Samples;Min_cycle;Max_cycle;Signal;HPM_P1;HPM_P2
2022/11/16 00:02:24;;;;;;;6.03;3.00;;;;;;;-5.99;85.13;100343.69;4807130;28;19918;-69
2022/11/16 00:05:09;;;;;;;10.43;3.35;;;;;;;-5.93;84.45;100338.00;4798411;28;20110;-69
2022/11/16 00:07:55;;;;;;;10.05;3.00;;;;;;;-5.71;84.09;100345.91;4806387;28;20087;-71
2022/11/16 00:10:57;;;;;;;3.75;2.47;;;;;;;-5.60;83.72;100353.22;4845166;28;20053;-70
2022/11/16 00:13:37;;;;;;;6.95;3.03;;;;;;;-5.60;83.53;100348.13;4915213;28;20148;-70
2022/11/16 00:16:29;;;;;;;5.75;2.65;;;;;;;-5.69;82.70;100354.50;4910313;28;20052;-70
2022/11/16 00:19:31;;;;;;;10.13;4.18;;;;;;;-5.74;82.69;100344.88;4901508;28;20116;-69
2022/11/16 00:25:17;;;;;;;12.57;3.72;;;;;;;-5.31;82.47;100350.44;4889688;28;20065;-69
2022/11/16 00:27:56;;;;;;;10.80;3.53;;;;;;;-5.14;81.67;100350.34;4910304;28;20067;-70
2022/11/16 00:30:50;;;;;;;9.88;3.22;;;;;;;-5.03;81.43;100349.19;4933373;28;20056;-68
2022/11/16 00:33:26;;;;;;;16.85;4.32;;;;;;;-4.87;81.17;100351.66;4938787;28;20036;-68
2022/11/16 00:36:20;;;;;;;7.05;2.92;;;;;;;-4.61;80.28;100354.56;4874692;28;20142;-69
2022/11/16 00:39:19;;;;;;;8.75;3.35;;;;;;;-4.41;80.21;100353.78;4866114;28;20057;-68
2022/11/16 00:42:01;;;;;;;10.10;3.10;;;;;;;-4.17;79.72;100358.22;4929847;28;20046;-69
2022/11/16 00:44:39;;;;;;;13.13;2.83;;;;;;;-3.92;79.03;100355.94;4897114;28;20317;-67
2022/11/16 00:47:17;;;;;;;7.43;2.90;;;;;;;-3.72;78.27;100355.91;4921891;28;20056;-69
2022/11/16 00:49:50;;;;;;;5.43;3.00;;;;;;;-3.58;77.95;100357.38;4942906;28;20117;-68
2022/11/16 00:52:50;;;;;;;5.22;2.90;;;;;;;-3.45;76.88;100352.78;4932019;28;20043;-68
2022/11/16 00:55:52;;;;;;;4.45;2.50;;;;;;;-3.26;76.11;100351.03;4913482;28;20040;-68
2022/11/16 00:58:28;;;;;;;4.38;2.90;;;;;;;-3.09;75.71;100351.72;4876604;28;20049;-69
2022/11/16 01:01:19;;;;;;;4.88;3.33;;;;;;;-3.09;75.05;100344.03;4874800;28;20111;-69
2022/11/16 01:03:53;;;;;;;7.65;2.25;;;;;;;-2.90;74.75;100354.97;4877760;28;20381;-68
2022/11/16 01:06:38;;;;;;;4.07;2.10;;;;;;;-2.80;73.31;100364.75;4918273;28;20040;-69
2022/11/16 01:09:29;;;;;;;4.15;2.53;;;;;;;-2.70;73.73;100354.06;4920528;28;20042;-67
2022/11/16 01:12:17;;;;;;;3.15;2.30;;;;;;;-2.53;73.11;100348.72;4900752;28;20079;-68
2022/11/16 01:15:02;;;;;;;5.95;4.10;;;;;;;-2.47;73.16;100336.16;4912356;28;20070;-69
2022/11/16 01:17:48;;;;;;;11.48;7.38;;;;;;;-2.41;72.50;100346.63;4896326;28;20044;-68
2022/11/16 01:20:43;;;;;;;5.10;3.42;;;;;;;-2.32;72.24;100352.09;4940656;28;20060;-69
2022/11/16 01:23:23;;;;;;;5.95;2.75;;;;;;;-2.25;71.70;100346.34;4934402;28;20056;-70
2022/11/16 01:26:11;;;;;;;8.23;5.18;;;;;;;-2.36;71.26;100350.22;4941102;28;20066;-71
2022/11/16 01:28:54;;;;;;;6.68;4.43;;;;;;;-2.33;71.34;100350.34;4926995;28;20046;-72
2022/11/16 01:31:37;;;;;;;5.70;3.45;;;;;;;-2.14;71.54;100357.00;4942882;28;20107;-71
2022/11/16 01:34:24;;;;;;;11.10;7.43;;;;;;;-2.06;71.72;100349.59;4907895;28;20072;-73
2022/11/16 01:37:04;;;;;;;6.32;3.45;;;;;;;-1.92;70.36;100358.66;4930806;28;20058;-72
2022/11/16 01:42:37;;;;;;;9.40;4.10;;;;;;;-1.92;69.99;100348.41;4923666;28;20562;-71
2022/11/16 01:45:28;;;;;;;11.02;5.25;;;;;;;-1.94;69.54;100344.91;4947411;28;20076;-71
2022/11/16 01:48:15;;;;;;;14.93;4.75;;;;;;;-1.88;70.06;100349.38;4905177;28;20058;-71
2022/11/16 01:50:57;;;;;;;19.83;10.85;;;;;;;-1.73;70.36;100345.63;4890255;28;20049;-72
2022/11/16 01:53:48;;;;;;;13.98;7.60;;;;;;;-1.80;69.68;100343.72;4933871;28;20053;-70
2022/11/16 01:56:34;;;;;;;14.15;4.97;;;;;;;-1.93;69.54;100310.78;4908637;28;20068;-72
2022/11/16 01:59:34;;;;;;;407.88;237.55;;;;;;;-1.67;69.84;100338.97;4841406;28;20108;-70
2022/11/16 02:02:23;;;;;;;31.73;15.80;;;;;;;-1.67;70.41;100336.41;4903856;28;20072;-69
2022/11/16 02:04:59;;;;;;;8.63;5.20;;;;;;;-1.64;70.36;100339.13;4873608;28;20048;-71
2022/11/16 02:11:37;;;;;;;27.63;18.13;;;;;;;-1.34;71.74;100329.88;4896512;28;20050;-70
2022/11/16 02:15:06;;;;;;;9.73;3.90;;;;;;;-1.29;70.51;100321.47;4873385;28;20037;-70
2022/11/16 02:17:53;;;;;;;11.70;5.00;;;;;;;-1.27;70.46;100319.81;4889807;28;20052;-69
2022/11/16 02:20:53;;;;;;;4.95;3.05;;;;;;;-1.17;70.30;100321.88;4917523;28;20070;-71
2022/11/16 02:24:21;;;;;;;8.45;2.88;;;;;;;-1.16;69.80;100323.59;4881127;28;20042;-69
2022/11/16 02:27:25;;;;;;;;;;;;;;;-1.16;70.24;100305.66;4894731;28;20049;-71
2022/11/16 02:30:25;;;;;;;13.60;7.75;;;;;;;-1.38;70.18;100260.50;4855068;28;19926;-70
2022/11/16 02:33:19;;;;;;;9.45;5.40;;;;;;;-1.01;70.20;100311.25;4849481;28;20157;-72
2022/11/16 02:36:13;;;;;;;9.77;5.45;;;;;;;-0.93;70.06;100311.47;4840689;28;20093;-70
2022/11/16 02:39:10;;;;;;;8.80;5.05;;;;;;;-0.97;69.93;100302.84;4847370;28;20066;-72
2022/11/16 02:41:55;;;;;;;5.72;3.65;;;;;;;-0.83;70.31;100308.38;4829048;28;20042;-70
2022/11/16 02:44:45;;;;;;;4.38;2.40;;;;;;;-1.05;70.33;100267.50;4840406;28;20110;-70
2022/11/16 02:47:32;;;;;;;7.68;3.47;;;;;;;-0.80;70.28;100302.47;4852402;28;20198;-72
2022/11/16 02:50:55;;;;;;;10.82;5.68;;;;;;;-0.75;70.78;100316.28;4835633;28;20093;-73
2022/11/16 02:53:53;;;;;;;7.38;4.55;;;;;;;-0.85;71.24;100304.03;4832742;28;20089;-73
2022/11/16 02:56:51;;;;;;;6.35;3.53;;;;;;;-0.69;70.56;100316.50;4828963;28;20050;-71
2022/11/16 02:59:53;;;;;;;33.58;21.80;;;;;;;-0.70;71.36;100305.38;4798714;28;20134;-73
2022/11/16 03:02:48;;;;;;;4.13;2.75;;;;;;;-0.67;71.75;100307.16;4827978;28;20060;-71
2022/11/16 03:05:32;;;;;;;4.78;3.90;;;;;;;-0.61;72.26;100294.50;4865486;28;20083;-72
2022/11/16 03:08:24;;;;;;;21.10;9.65;;;;;;;-0.55;71.74;100304.94;4883104;28;20049;-73
2022/11/16 03:14:03;;;;;;;187.77;124.65;;;;;;;-0.41;72.25;100291.63;4909881;28;20106;-73
2022/11/16 03:17:03;;;;;;;18.38;11.43;;;;;;;-0.27;71.79;100290.31;4889538;28;20532;-71
2022/11/16 03:19:49;;;;;;;7.70;4.35;;;;;;;-0.26;71.76;100286.91;4902159;28;20068;-74
2022/11/16 03:22:36;;;;;;;12.13;7.70;;;;;;;-0.28;71.04;100293.69;4857782;28;20069;-75
2022/11/16 03:25:50;;;;;;;6.82;4.20;;;;;;;-0.20;70.91;100294.81;4877492;28;20033;-78
2022/11/16 03:28:42;;;;;;;48.75;33.60;;;;;;;-0.14;70.67;100292.38;4919488;28;20281;-72
2022/11/16 03:31:44;;;;;;;22.55;16.55;;;;;;;-0.03;70.66;100296.09;4933931;28;20493;-72
2022/11/16 03:34:32;;;;;;;12.07;7.95;;;;;;;-0.39;70.33;100238.63;4900247;28;20049;-73
2022/11/16 03:37:39;;;;;;;8.50;3.58;;;;;;;-0.17;69.90;100287.19;4911408;28;20052;-71
2022/11/16 03:40:28;;;;;;;7.32;4.00;;;;;;;-0.27;70.24;100280.91;4911748;28;20040;-76
2022/11/16 03:43:07;;;;;;;22.08;14.27;;;;;;;-0.22;69.38;100288.75;4847450;28;20399;-74
2022/11/16 03:45:52;;;;;;;9.70;4.55;;;;;;;-0.23;68.89;100294.69;4898082;28;20071;-72
2022/11/16 03:48:43;;;;;;;9.80;3.90;;;;;;;-0.26;69.11;100302.31;4882322;28;20074;-72
2022/11/16 03:51:28;;;;;;;7.15;3.75;;;;;;;-0.22;69.20;100294.75;4886858;28;20116;-73
2022/11/16 03:57:19;;;;;;;13.60;4.18;;;;;;;-0.03;68.82;100306.38;4920699;28;20060;-73
2022/11/16 04:00:01;;;;;;;5.68;3.42;;;;;;;-0.02;68.28;100294.44;4907368;28;20084;-73
2022/11/16 04:03:11;;;;;;;18.10;9.85;;;;;;;0.12;69.53;100305.06;4958250;28;20060;-72
2022/11/16 04:29:46;;;;;;;33.20;16.42;;;;;;;0.17;65.88;100300.91;4936363;28;20045;-72
2022/11/16 04:38:20;;;;;;;3.83;2.97;;;;;;;0.07;64.67;100319.47;4917338;28;20051;-72
2022/11/16 04:41:04;;;;;;;5.18;2.75;;;;;;;-0.01;64.20;100317.56;4869683;28;20056;-73
2022/11/16 04:44:08;;;;;;;16.20;9.25;;;;;;;-0.01;64.06;100309.88;4885929;28;20054;-75
2022/11/16 04:47:09;;;;;;;4.63;2.80;;;;;;;0.10;64.11;100322.13;4834324;28;21073;-74
2022/11/16 04:52:38;;;;;;;5.95;3.13;;;;;;;0.10;65.33;100324.69;4900183;28;20653;-75
2022/11/16 04:55:23;;;;;;;77.05;49.40;;;;;;;0.07;64.74;100327.19;4886702;28;20143;-73
2022/11/16 04:58:02;;;;;;;15.30;9.60;;;;;;;-0.01;64.67;100315.00;4908723;28;20269;-75
2022/11/16 05:00:47;;;;;;;16.00;9.48;;;;;;;0.02;64.32;100323.63;4909332;28;20041;-74
2022/11/16 05:03:44;;;;;;;40.85;22.58;;;;;;;-0.06;64.01;100321.72;4932149;28;20084;-75
2022/11/16 05:09:11;;;;;;;4.68;2.90;;;;;;;-0.16;62.98;100324.00;4869006;28;20061;-74
2022/11/16 05:11:51;;;;;;;3.80;2.45;;;;;;;-0.28;63.03;100311.69;4855876;28;20068;-74
2022/11/16 05:14:38;;;;;;;46.65;29.20;;;;;;;-0.29;62.88;100317.66;4909006;28;20053;-76
2022/11/16 05:17:15;;;;;;;23.20;16.65;;;;;;;-0.32;63.69;100327.84;4913984;28;20048;-75
2022/11/16 05:26:16;;;;;;;19.95;12.13;;;;;;;-0.40;66.87;100343.03;4903740;28;20049;-74
2022/11/16 05:31:53;;;;;;;28.40;17.92;;;;;;;-0.78;67.46;100300.81;4879125;28;20055;-74
2022/11/16 05:34:43;;;;;;;386.30;246.35;;;;;;;-0.61;68.08;100345.81;4911810;28;20108;-70
2022/11/16 05:37:30;;;;;;;52.65;33.92;;;;;;;-0.77;68.26;100333.38;4894560;28;20062;-72
2022/11/16 05:40:19;;;;;;;22.58;15.27;;;;;;;-0.67;68.25;100361.03;4923217;28;21554;-73
2022/11/16 05:43:05;;;;;;;43.08;31.10;;;;;;;-0.68;67.22;100352.44;4838195;28;20053;-73
2022/11/16 05:45:43;;;;;;;6.78;4.00;;;;;;;-0.84;67.09;100326.31;4881531;28;20104;-76
2022/11/16 05:48:31;;;;;;;14.60;9.48;;;;;;;-0.75;66.95;100352.22;4881810;28;20055;-72
2022/11/16 05:51:31;;;;;;;4.85;3.38;;;;;;;-0.85;66.75;100345.06;4913513;28;20056;-75
2022/11/16 05:54:19;;;;;;;2.80;2.50;;;;;;;-0.96;66.88;100337.91;4897935;28;20156;-75
2022/11/16 05:57:02;;;;;;;12.88;8.65;;;;;;;-1.03;67.47;100360.75;4827596;28;20072;-73
2022/11/16 05:59:59;;;;;;;16.90;10.00;;;;;;;-1.22;68.05;100364.41;4894086;28;20049;-73
2022/11/16 06:02:48;;;;;;;91.85;49.92;;;;;;;-1.39;69.02;100362.16;4887093;28;20076;-75
2022/11/16 06:05:32;;;;;;;4.50;3.10;;;;;;;-1.53;69.08;100358.25;4847209;28;20088;-73
2022/11/16 06:08:17;;;;;;;4.45;3.00;;;;;;;-1.60;69.99;100371.69;4885159;28;20136;-74
2022/11/16 06:11:08;;;;;;;8.77;5.30;;;;;;;-1.78;70.74;100357.41;4896311;28;20061;-73
2022/11/16 06:14:07;;;;;;;6.78;3.28;;;;;;;-1.71;71.73;100375.59;4899781;28;20040;-72
2022/11/16 06:16:50;;;;;;;6.55;4.95;;;;;;;-1.79;72.24;100375.31;4850043;28;20049;-71
2022/11/16 06:19:47;;;;;;;3.80;2.67;;;;;;;-1.89;72.72;100384.38;4877802;28;20053;-71
2022/11/16 06:22:51;;;;;;;3.42;2.50;;;;;;;-2.05;73.28;100372.69;4854665;28;20053;-75
2022/11/16 06:26:12;;;;;;;5.75;3.25;;;;;;;-2.07;73.17;100383.69;4826274;28;20041;-72
2022/11/16 06:29:09;;;;;;;3.17;2.20;;;;;;;-2.18;73.93;100380.75;4879560;28;20045;-77
2022/11/16 06:31:46;;;;;;;3.97;2.60;;;;;;;-2.26;74.32;100380.47;4904146;28;20224;-73
2022/11/16 06:34:38;;;;;;;10.25;3.00;;;;;;;-2.36;75.11;100375.81;4880976;28;20060;-74
2022/11/16 06:37:17;;;;;;;5.70;3.50;;;;;;;-2.46;76.18;100374.59;4866222;28;20045;-78
2022/11/16 06:42:52;;;;;;;4.90;2.83;;;;;;;-2.57;76.89;100400.56;4881270;28;20042;-77
2022/11/16 06:45:38;;;;;;;4.03;3.08;;;;;;;-2.65;77.26;100398.59;4855723;28;20334;-73
2022/11/16 06:48:16;;;;;;;4.07;2.97;;;;;;;-2.75;77.85;100391.38;4904452;28;21313;-72
2022/11/16 06:51:04;;;;;;;4.30;3.30;;;;;;;-2.82;78.66;100395.41;4910218;28;20098;-73
2022/11/16 06:57:03;;;;;;;10.98;3.58;;;;;;;-2.89;79.52;100413.00;4917491;28;20044;-74
2022/11/16 06:59:45;;;;;;;4.25;2.92;;;;;;;-2.93;79.82;100411.13;4887736;28;20049;-75
2022/11/16 07:02:44;;;;;;;4.97;2.85;;;;;;;-2.99;80.33;100410.88;4897650;28;20057;-73
2022/11/16 07:05:51;;;;;;;4.75;2.60;;;;;;;-2.99;79.78;100421.09;4909332;28;20203;-73
2022/11/16 07:08:28;;;;;;;8.07;3.38;;;;;;;-3.11;79.87;100427.44;4881765;28;20045;-74
2022/11/16 07:14:04;;;;;;;3.72;2.97;;;;;;;-3.32;80.24;100434.22;4838704;28;20049;-71
2022/11/16 07:20:17;;;;;;;3.65;2.75;;;;;;;-3.67;80.72;100417.38;4880646;28;20057;-74
2022/11/16 07:23:36;;;;;;;4.00;2.83;;;;;;;-3.68;81.98;100431.84;4901150;28;20043;-73
2022/11/16 07:26:15;;;;;;;4.65;3.20;;;;;;;-3.72;82.78;100435.06;4930924;28;20216;-73
2022/11/16 07:29:04;;;;;;;4.82;2.60;;;;;;;-3.79;84.77;100443.28;4901449;28;20045;-72
2022/11/16 07:31:49;;;;;;;4.28;2.90;;;;;;;-3.85;85.55;100437.91;4914261;28;20037;-72
2022/11/16 07:37:42;;;;;;;8.05;3.67;;;;;;;-3.95;86.64;100454.47;4887824;28;20040;-73
2022/11/16 07:40:23;;;;;;;11.32;5.22;;;;;;;-4.01;86.79;100457.63;4911997;28;20048;-73
2022/11/16 07:43:08;;;;;;;12.18;7.32;;;;;;;-4.03;87.11;100458.38;4918858;28;20047;-73
2022/11/16 07:45:44;;;;;;;14.27;7.43;;;;;;;-4.05;86.98;100455.75;4900741;28;20469;-72
2022/11/16 07:48:29;;;;;;;9.10;6.07;;;;;;;-4.04;87.00;100456.59;4883564;28;20054;-73
2022/11/16 07:51:25;;;;;;;9.43;4.65;;;;;;;-4.03;86.97;100454.13;4858522;28;20067;-73
2022/11/16 07:56:55;;;;;;;6.38;4.70;;;;;;;-4.05;86.60;100471.06;4878317;28;20561;-74
2022/11/16 07:59:33;;;;;;;3.97;2.85;;;;;;;-4.09;86.08;100464.09;4911735;28;20056;-74
2022/11/16 08:02:30;;;;;;;6.45;3.35;;;;;;;-4.09;86.33;100474.28;4909932;28;20051;-72
2022/11/16 08:05:19;;;;;;;3.85;2.95;;;;;;;-4.13;86.62;100477.50;4886881;28;20046;-73
2022/11/16 08:08:00;;;;;;;5.40;3.37;;;;;;;-4.17;87.14;100470.50;4873192;28;20263;-73
2022/11/16 08:10:51;;;;;;;4.65;2.97;;;;;;;-4.19;87.51;100461.91;4907017;28;20045;-73
2022/11/16 08:13:25;;;;;;;5.15;3.17;;;;;;;-4.11;88.20;100478.44;4888455;28;20046;-71
2022/11/16 08:16:09;;;;;;;7.63;3.22;;;;;;;-4.09;88.22;100469.19;4912413;28;20053;-72
2022/11/16 08:22:24;;;;;;;5.25;3.58;;;;;;;-3.93;88.17;100486.94;4890675;28;20108;-73
2022/11/16 08:25:07;;;;;;;6.03;3.95;;;;;;;-3.93;88.06;100481.81;4877175;28;20096;-72
2022/11/16 08:28:07;;;;;;;14.02;4.07;;;;;;;-3.84;87.93;100490.69;4892970;28;20061;-73
2022/11/16 08:30:51;;;;;;;7.22;4.30;;;;;;;-3.92;87.11;100488.69;4907145;28;20059;-73
2022/11/16 08:33:30;;;;;;;9.10;5.10;;;;;;;-4.12;86.91;100489.44;4913471;28;20052;-73
2022/11/16 08:36:28;;;;;;;8.35;5.32;;;;;;;-4.32;86.51;100490.19;4913474;28;20048;-75
2022/11/16 08:42:15;;;;;;;9.45;5.03;;;;;;;-4.44;87.04;100504.13;4902961;28;20045;-73
2022/11/16 08:44:59;;;;;;;6.80;3.88;;;;;;;-4.48;87.43;100503.91;4910561;28;20497;-74
2022/11/16 08:47:52;;;;;;;10.73;5.72;;;;;;;-4.51;87.46;100514.84;4893069;28;20525;-73
2022/11/16 08:53:53;;;;;;;13.57;7.15;;;;;;;-4.50;88.17;100516.56;4859390;28;20066;-74
2022/11/16 08:56:48;;;;;;;15.32;7.80;;;;;;;-4.49;88.36;100518.34;4917314;28;20199;-74
2022/11/16 08:59:50;;;;;;;12.13;4.90;;;;;;;-4.52;88.78;100502.88;4915337;28;20082;-70
2022/11/16 09:02:39;;;;;;;7.75;3.75;;;;;;;-4.41;88.98;100522.13;4907887;28;20058;-73
2022/11/16 09:05:37;;;;;;;9.73;4.40;;;;;;;-4.43;89.54;100513.53;4873537;28;20054;-72
2022/11/16 09:08:26;;;;;;;8.98;4.38;;;;;;;-4.35;89.81;100531.75;4872390;28;20053;-72
2022/11/16 09:10:59;;;;;;;4.55;3.13;;;;;;;-4.44;89.88;100519.44;4913922;28;20041;-72
2022/11/16 09:13:38;;;;;;;5.30;3.25;;;;;;;-4.65;90.36;100495.44;4893417;28;20680;-73
2022/11/16 09:16:21;;;;;;;5.70;3.78;;;;;;;-4.47;90.64;100539.66;4897611;28;20499;-72
2022/11/16 09:19:24;;;;;;;5.63;3.60;;;;;;;-4.56;90.42;100531.59;4865421;28;20040;-75
2022/11/16 09:22:09;;;;;;;24.13;10.45;;;;;;;-4.80;90.40;100495.56;4910635;28;20051;-72
2022/11/16 09:24:41;;;;;;;24.67;13.40;;;;;;;-4.66;90.29;100534.50;4913883;28;20213;-73
2022/11/16 09:27:26;;;;;;;13.15;8.27;;;;;;;-4.81;90.37;100527.84;4919859;28;20059;-74
2022/11/16 09:30:18;;;;;;;25.85;10.98;;;;;;;-4.87;90.21;100535.16;4887146;28;20084;-74
2022/11/16 09:33:16;;;;;;;34.38;13.50;;;;;;;-5.22;90.13;100495.19;4867354;28;20053;-73
2022/11/16 09:36:30;;;;;;;46.17;15.00;;;;;;;-5.04;90.22;100536.00;4868321;28;20170;-71
2022/11/16 09:42:42;;;;;;;66.47;22.52;;;;;;;-5.05;90.58;100544.44;4922396;28;20108;-72
2022/11/16 09:45:36;;;;;;;20.17;7.13;;;;;;;-5.08;90.58;100539.22;4914748;28;20052;-73
2022/11/16 09:48:26;;;;;;;25.67;12.40;;;;;;;-5.02;90.53;100549.69;4925189;28;20111;-71
2022/11/16 09:51:20;;;;;;;83.20;25.17;;;;;;;-5.09;90.85;100550.19;4878871;28;20068;-71
2022/11/16 09:54:19;;;;;;;60.22;19.77;;;;;;;-5.11;91.17;100555.22;4848756;28;20052;-71
2022/11/16 09:57:14;;;;;;;35.55;14.48;;;;;;;-5.20;91.30;100550.50;4856165;28;20257;-73
2022/11/16 10:00:20;;;;;;;17.88;9.32;;;;;;;-5.20;91.65;100563.25;4888747;28;20050;-72
2022/11/16 10:03:13;;;;;;;9.90;8.02;;;;;;;-5.31;91.73;100556.75;4912155;28;20104;-73
2022/11/16 10:06:10;;;;;;;6.97;5.93;;;;;;;-5.41;91.65;100559.59;4900236;28;20045;-73
2022/11/16 10:08:56;;;;;;;;;;;;;;;-5.48;91.91;100558.41;4872900;28;20333;-73
2022/11/16 10:12:21;;;;;;;7.90;4.70;;;;;;;-5.88;91.78;100525.75;4838883;28;19935;-72
2022/11/16 10:18:43;;;;;;;6.45;4.53;;;;;;;-5.65;92.65;100560.03;4877089;28;20552;-72
2022/11/16 10:21:39;;;;;;;5.50;4.13;;;;;;;-5.69;92.69;100558.16;4901646;28;20041;-71
2022/11/16 10:24:59;;;;;;;5.90;4.03;;;;;;;-5.77;92.64;100568.69;4913382;28;20432;-72
2022/11/16 10:28:21;;;;;;;6.18;4.30;;;;;;;-6.11;92.59;100532.16;4901058;28;20047;-72
2022/11/16 10:31:16;;;;;;;7.10;3.80;;;;;;;-5.77;92.84;100589.94;4885872;28;20052;-72
2022/11/16 10:34:00;;;;;;;10.80;5.53;;;;;;;-5.69;93.38;100588.69;4902245;28;20128;-72
2022/11/16 10:36:53;;;;;;;13.90;6.45;;;;;;;-5.64;92.72;100601.69;4905664;28;20095;-72
2022/11/16 10:42:31;;;;;;;10.85;6.70;;;;;;;-5.80;91.92;100574.50;4900747;28;20618;-72
2022/11/16 10:45:26;;;;;;;11.05;5.95;;;;;;;-5.80;91.16;100605.03;4890155;28;20041;-73
2022/11/16 10:48:48;;;;;;;15.65;7.70;;;;;;;-5.93;90.62;100607.72;4876760;28;20114;-72
2022/11/16 10:51:31;;;;;;;13.70;7.57;;;;;;;-6.09;90.34;100612.00;4873712;28;20046;-72
2022/11/16 10:54:19;;;;;;;16.63;8.30;;;;;;;-6.17;90.42;100613.22;4879476;28;20615;-71
2022/11/16 10:57:15;;;;;;;15.05;7.80;;;;;;;-6.26;90.20;100609.28;4842078;28;20061;-70
2022/11/16 11:00:04;;;;;;;6.55;4.90;;;;;;;-6.29;90.97;100622.69;4864484;28;20332;-71
2022/11/16 11:03:14;;;;;;;10.50;4.47;;;;;;;-6.30;91.25;100615.88;4894203;28;20087;-71
2022/11/16 11:05:54;;;;;;;20.60;8.73;;;;;;;-6.15;91.36;100626.91;4898688;28;20045;-70
2022/11/16 11:08:33;;;;;;;24.20;7.95;;;;;;;-6.09;91.38;100622.19;4929740;28;20237;-70
2022/11/16 11:14:22;;;;;;;14.97;5.83;;;;;;;-6.20;90.49;100628.31;4876954;28;20046;-71
2022/11/16 11:17:19;;;;;;;27.38;10.88;;;;;;;-6.34;90.47;100634.28;4891907;28;20644;-70
2022/11/16 11:27:32;;;;;;;14.57;8.10;;;;;;;-6.43;90.85;100629.56;4879686;28;20124;-71
2022/11/16 11:30:21;;;;;;;31.52;12.30;;;;;;;-6.29;91.08;100637.94;4881571;28;20125;-72
2022/11/16 11:33:27;;;;;;;32.22;11.65;;;;;;;-6.43;90.85;100626.13;4866792;28;20054;-71
2022/11/16 11:36:17;;;;;;;36.28;13.18;;;;;;;-6.47;90.84;100626.75;4856442;28;20049;-71
2022/11/16 11:39:10;;;;;;;40.60;13.00;;;;;;;-6.42;90.78;100635.50;4838402;28;20061;-71
2022/11/16 11:42:13;;;;;;;32.63;10.23;;;;;;;-6.57;90.92;100621.13;4846902;28;20049;-72
2022/11/16 11:44:59;;;;;;;20.05;6.93;;;;;;;-6.57;90.69;100636.38;4865962;28;20050;-70
2022/11/16 11:47:46;;;;;;;6.93;4.13;;;;;;;-6.63;90.99;100646.19;4878244;28;21252;-70
2022/11/16 11:51:15;;;;;;;8.52;3.97;;;;;;;-6.69;91.14;100640.72;4864176;28;20050;-70
2022/11/16 11:57:27;;;;;;;10.43;4.63;;;;;;;-6.75;92.12;100642.94;4855775;28;20115;-71
2022/11/16 12:00:14;;;;;;;7.85;4.80;;;;;;;-6.78;92.04;100655.47;4905612;28;20041;-71
2022/11/16 12:03:21;;;;;;;7.38;5.25;;;;;;;-7.10;92.09;100597.66;4915131;28;20052;-70
2022/11/16 12:09:42;;;;;;;11.73;6.15;;;;;;;-6.78;92.05;100675.78;4879124;28;20887;-71
2022/11/16 12:12:54;;;;;;;8.90;4.25;;;;;;;-6.91;91.35;100683.44;4919558;28;20209;-70
2022/11/16 12:15:58;;;;;;;38.88;12.25;;;;;;;-6.83;91.30;100684.81;4893686;28;20072;-70
2022/11/16 12:19:00;;;;;;;86.70;29.30;;;;;;;-7.04;90.28;100667.50;4845315;28;20049;-71
2022/11/16 12:21:55;;;;;;;58.97;19.90;;;;;;;-7.14;89.66;100677.84;4942704;28;20059;-71
2022/11/16 12:25:06;;;;;;;30.85;11.15;;;;;;;-7.15;89.43;100683.72;4901483;28;21000;-69
2022/11/16 12:28:21;;;;;;;27.38;10.65;;;;;;;-7.56;88.71;100636.38;4894031;28;20080;-70
2022/11/16 12:31:20;;;;;;;26.52;10.15;;;;;;;-7.30;88.20;100681.13;4906028;28;20080;-71
2022/11/16 12:37:32;;;;;;;29.55;12.43;;;;;;;-7.54;87.56;100688.09;4904355;28;20073;-72
2022/11/16 12:40:31;;;;;;;33.35;13.48;;;;;;;-7.77;87.91;100647.72;4900743;28;20084;-71
2022/11/16 12:43:38;;;;;;;30.02;12.25;;;;;;;-7.55;87.50;100690.53;4871510;28;20053;-69
2022/11/16 12:46:32;;;;;;;43.08;16.33;;;;;;;-7.60;87.15;100698.75;4894142;28;20044;-70
2022/11/16 12:49:47;;;;;;;46.58;17.20;;;;;;;-7.74;86.95;100698.66;4916848;28;20474;-70
2022/11/16 12:52:56;;;;;;;90.80;21.40;;;;;;;-7.85;86.79;100693.78;4888193;28;20044;-70
2022/11/16 12:55:51;;;;;;;46.47;18.08;;;;;;;-8.05;87.40;100673.88;4899717;28;20047;-71
2022/11/16 12:58:38;;;;;;;40.90;15.88;;;;;;;-7.86;88.23;100709.78;4899122;28;20451;-70
2022/11/16 13:01:37;;;;;;;38.75;16.75;;;;;;;-7.84;88.67;100713.31;4902212;28;20060;-71
2022/11/16 13:04:18;;;;;;;39.30;16.65;;;;;;;-7.82;88.84;100711.72;4876997;28;20295;-70
2022/11/16 13:07:07;;;;;;;34.50;14.32;;;;;;;-7.90;88.41;100712.88;4899823;28;20047;-70
2022/11/16 13:09:59;;;;;;;22.70;10.85;;;;;;;-8.04;87.83;100714.56;4901400;28;20044;-70
2022/11/16 13:12:54;;;;;;;24.17;10.00;;;;;;;-8.12;87.58;100715.69;4901428;28;20041;-70
2022/11/16 13:15:49;;;;;;;16.20;8.85;;;;;;;-8.22;88.17;100702.31;4886743;28;20037;-70
2022/11/16 13:18:46;;;;;;;8.80;5.15;;;;;;;-8.34;87.78;100698.19;4900016;28;20050;-70
2022/11/16 13:21:49;;;;;;;7.25;5.15;;;;;;;-8.49;88.87;100687.06;4910672;28;20314;-70
2022/11/16 13:24:58;;;;;;;6.57;4.60;;;;;;;-9.24;88.92;100574.03;4903285;28;20060;-68
2022/11/16 13:27:37;;;;;;;;;;;;;;;-8.52;89.22;100702.09;4914843;28;20044;-69
2022/11/16 13:33:35;;;;;;;5.35;3.78;;;;;;;-9.39;89.57;100557.81;4922552;28;20116;-68
2022/11/16 13:36:54;;;;;;;5.72;4.00;;;;;;;-8.64;90.56;100679.34;4882337;28;20040;-69
2022/11/16 13:40:19;;;;;;;6.88;4.57;;;;;;;-8.43;90.74;100692.56;4844288;28;20359;-68
2022/11/16 13:43:23;;;;;;;6.28;4.65;;;;;;;-8.37;91.13;100698.00;4777655;28;20045;-67
2022/11/16 13:49:55;;;;;;;8.30;4.30;;;;;;;-8.08;91.21;100696.50;4820197;28;20346;-68
2022/11/16 13:52:47;;;;;;;7.60;4.50;;;;;;;-8.03;90.96;100736.59;4809940;28;20196;-68
2022/11/16 13:59:07;;;;;;;6.82;4.50;;;;;;;-8.03;89.90;100730.63;4826533;28;20049;-68
2022/11/16 14:05:19;;;;;;;5.80;4.05;;;;;;;-8.20;88.96;100710.91;4842319;28;20042;-68
2022/11/16 14:08:13;;;;;;;5.47;4.07;;;;;;;-8.40;88.94;100705.44;4799596;28;20043;-68
2022/11/16 14:11:07;;;;;;;7.03;4.30;;;;;;;-8.61;89.12;100686.25;4833340;28;20110;-68
2022/11/16 14:13:47;;;;;;;12.05;4.88;;;;;;;-8.49;89.70;100709.88;4818677;28;20094;-69
2022/11/16 14:17:05;;;;;;;11.43;6.55;;;;;;;-8.49;90.20;100717.47;4917760;28;20060;-70
2022/11/16 14:20:14;;;;;;;22.67;10.40;;;;;;;-8.51;90.54;100714.88;4890029;28;20099;-67
2022/11/16 14:23:24;;;;;;;15.77;8.20;;;;;;;-8.50;90.79;100721.69;4899534;28;20099;-67
2022/11/16 14:26:15;;;;;;;17.67;8.98;;;;;;;-8.51;90.95;100729.16;4898771;28;20454;-67
2022/11/16 14:29:22;;;;;;;15.88;7.93;;;;;;;-8.49;90.88;100722.53;4871995;28;20045;-67
2022/11/16 14:32:05;;;;;;;9.60;5.63;;;;;;;-8.20;91.69;100713.44;4897457;28;20040;-67
2022/11/16 14:34:58;;;;;;;11.48;5.18;;;;;;;-8.27;91.07;100709.63;4919811;28;20053;-67
2022/11/16 14:38:20;;;;;;;9.35;5.03;;;;;;;-8.28;90.15;100708.75;4899020;28;20060;-66
2022/11/16 14:40:56;;;;;;;21.85;8.48;;;;;;;-8.36;89.56;100699.75;4877776;28;20080;-67
2022/11/16 14:43:52;;;;;;;49.67;16.38;;;;;;;-8.42;88.62;100718.78;4860375;28;20052;-67
2022/11/16 14:46:39;;;;;;;56.10;18.70;;;;;;;-8.54;88.63;100728.97;4892037;28;20053;-67
2022/11/16 14:49:26;;;;;;;16.55;7.63;;;;;;;-8.47;89.03;100721.88;4879889;28;20054;-67
2022/11/16 14:52:38;;;;;;;11.15;5.60;;;;;;;-8.73;87.54;100720.13;4891064;28;20055;-67
2022/11/16 14:58:17;;;;;;;9.77;5.20;;;;;;;-8.96;85.56;100732.88;4891683;28;20067;-66
2022/11/16 15:01:04;;;;;;;11.50;5.88;;;;;;;-9.11;84.64;100732.69;4935119;28;20038;-65
2022/11/16 15:04:01;;;;;;;16.27;8.07;;;;;;;-9.19;84.68;100734.69;4884233;28;20072;-65
2022/11/16 15:06:53;;;;;;;19.95;9.52;;;;;;;-9.23;85.10;100712.47;4928656;28;20040;-65
2022/11/16 15:09:42;;;;;;;15.68;7.13;;;;;;;-9.14;84.78;100723.22;4930652;28;20048;-65
2022/11/16 15:12:50;;;;;;;9.30;5.65;;;;;;;-8.99;84.68;100728.47;4940251;28;20051;-65
2022/11/16 15:15:29;;;;;;;11.07;5.32;;;;;;;-9.12;83.71;100736.88;4944746;28;20044;-66
2022/11/16 15:18:33;;;;;;;25.55;5.28;;;;;;;-9.20;83.77;100727.88;4865224;28;20067;-66
2022/11/16 15:21:32;;;;;;;25.35;5.18;;;;;;;-9.42;83.22;100727.16;4953867;28;20052;-65
2022/11/16 15:24:14;;;;;;;26.38;5.78;;;;;;;-9.60;83.15;100735.19;4922117;28;20082;-66
2022/11/16 15:27:23;;;;;;;12.90;4.38;;;;;;;-9.64;83.86;100737.38;4922031;28;20053;-65
2022/11/16 15:30:21;;;;;;;8.48;4.28;;;;;;;-9.86;83.97;100722.31;4915483;28;20058;-64